Beechy, Canada
Current Conditions -  °F | °C
As of 3:00 PM on Tuesday 27 Jan 2015 (Local Time) from CYYN Reporting Station
Broken Clouds Broken Clouds  
Wind Chill: 41°   Ceiling: 23000
Heat Index: 41°   Visibility: 9mi
Dew Point: 36°   Wind: 3mph
Humidity: 81%   Direction: 250°WSW
Pressure: 29.75"   Gusts: NA
Location:  50.88°N, 107.38°W
Report Text: CYYN 272100Z AUTO 25003KT 9SM BKN230 05/02 A2975 RMK SLP092
Loading
Personal Weather Stations






























Interactive Weather Map New forecast layout! Learn more

10-Day Weather Forecast

Advertisements
Track Severe Weather on mobile